Time;durP1;ratioP1;P1;durP2;ratioP2;P2;SDS_P1;SDS_P2;PMS_P1;PMS_P2;Temp;Humidity;BMP_temperature;BMP_pressure;BME280_temperature;BME280_humidity;BME280_pressure;Samples;Min_cycle;Max_cycle;Signal;HPM_P1;HPM_P2
2024/01/16 00:01:43;;;;;;;0.80;0.80;;;-0.80;99.90;;;;;;4880997;29;20118;-66
2024/01/16 00:04:10;;;;;;;0.93;0.85;;;-0.80;99.90;;;;;;4880438;29;20120;-66
2024/01/16 00:06:42;;;;;;;2.92;1.58;;;-0.70;99.90;;;;;;4882325;29;20520;-67
2024/01/16 00:09:11;;;;;;;1.13;1.00;;;-0.70;99.90;;;;;;4879867;29;20405;-66
2024/01/16 00:11:42;;;;;;;1.80;1.33;;;-0.70;99.90;;;;;;4895307;29;20084;-66
2024/01/16 00:14:08;;;;;;;12.90;2.50;;;-0.70;99.90;;;;;;4896484;29;20698;-66
2024/01/16 00:16:33;;;;;;;3.80;2.60;;;-0.80;99.90;;;;;;4902110;29;20103;-66
2024/01/16 00:18:59;;;;;;;2.67;1.58;;;-0.80;99.90;;;;;;4905012;29;20036;-66
2024/01/16 00:21:25;;;;;;;1.65;1.55;;;-0.80;99.90;;;;;;4900618;29;20108;-66
2024/01/16 00:23:51;;;;;;;8.73;4.25;;;-0.70;99.90;;;;;;4895483;29;20052;-66
2024/01/16 00:26:23;;;;;;;4.68;2.72;;;-0.70;99.90;;;;;;4897011;29;20032;-66
2024/01/16 00:28:49;;;;;;;2.83;2.05;;;-0.80;99.90;;;;;;4901682;29;20036;-66
2024/01/16 00:31:15;;;;;;;5.68;3.53;;;-0.80;99.90;;;;;;4891748;29;20037;-66
2024/01/16 00:33:41;;;;;;;4.10;2.08;;;-0.80;99.90;;;;;;4890794;29;20048;-66
2024/01/16 00:36:06;;;;;;;1.83;1.50;;;-0.80;99.90;;;;;;4894566;29;20047;-66
2024/01/16 00:38:35;;;;;;;5.07;3.15;;;-0.80;99.90;;;;;;4891005;29;20039;-65
2024/01/16 00:41:01;;;;;;;4.25;2.03;;;-0.80;99.90;;;;;;4899005;29;20422;-65
2024/01/16 00:43:27;;;;;;;4.05;2.55;;;-1.00;99.90;;;;;;4883036;29;20029;-66
2024/01/16 00:45:53;;;;;;;2.25;1.52;;;-0.90;99.90;;;;;;4916318;29;20032;-66
2024/01/16 00:48:20;;;;;;;3.25;1.50;;;-0.80;99.90;;;;;;4896112;29;20048;-66
2024/01/16 00:50:48;;;;;;;4.00;2.20;;;-0.70;99.90;;;;;;4901191;29;20560;-67
2024/01/16 00:53:14;;;;;;;4.82;0.98;;;-0.70;99.90;;;;;;4894914;29;20083;-66
2024/01/16 00:55:39;;;;;;;12.23;2.20;;;-0.70;99.90;;;;;;4886189;29;20494;-66
2024/01/16 00:58:05;;;;;;;1.30;1.20;;;-0.60;99.90;;;;;;4899917;29;20028;-66
2024/01/16 01:00:31;;;;;;;1.83;1.70;;;-1.10;99.90;;;;;;4897491;29;20033;-66
2024/01/16 01:02:58;;;;;;;2.22;1.48;;;-1.30;99.90;;;;;;4899751;29;20024;-66
2024/01/16 01:05:28;;;;;;;2.83;1.13;;;-1.50;99.90;;;;;;4899217;29;20043;-66
2024/01/16 01:07:55;;;;;;;2.25;1.27;;;-1.60;99.90;;;;;;4899898;29;20033;-66
2024/01/16 01:10:21;;;;;;;0.88;0.60;;;-1.70;99.90;;;;;;4899842;29;20489;-67
2024/01/16 01:12:46;;;;;;;2.50;1.70;;;-1.80;99.90;;;;;;4895225;29;20039;-66
2024/01/16 01:15:13;;;;;;;2.47;1.98;;;-1.80;99.90;;;;;;4900540;29;20036;-66
2024/01/16 01:17:40;;;;;;;3.05;2.75;;;-1.80;99.90;;;;;;4900882;29;20024;-66
2024/01/16 01:20:08;;;;;;;3.92;2.13;;;-1.80;99.90;;;;;;4897316;29;20063;-66
2024/01/16 01:22:35;;;;;;;6.97;1.98;;;-1.80;99.90;;;;;;4915017;29;20032;-66
2024/01/16 01:25:01;;;;;;;2.15;1.55;;;-1.80;99.90;;;;;;4899410;29;20025;-68
2024/01/16 01:27:26;;;;;;;4.68;2.20;;;-1.80;99.90;;;;;;4898246;29;20047;-67
2024/01/16 01:29:52;;;;;;;7.40;4.13;;;-1.80;99.90;;;;;;4898683;29;20028;-67
2024/01/16 01:32:18;;;;;;;2.30;1.13;;;-1.80;99.90;;;;;;4896577;29;20478;-67
2024/01/16 01:34:44;;;;;;;4.25;2.28;;;-1.90;99.90;;;;;;4899362;29;20060;-67
2024/01/16 01:37:09;;;;;;;2.28;1.23;;;-1.90;99.90;;;;;;4899443;29;20399;-67
2024/01/16 01:39:37;;;;;;;4.30;2.50;;;-2.00;99.90;;;;;;4897400;29;20643;-67
2024/01/16 01:42:04;;;;;;;1.90;1.38;;;-2.00;99.90;;;;;;4901104;29;20500;-66
2024/01/16 01:44:29;;;;;;;2.47;1.95;;;-2.00;99.90;;;;;;4897968;29;20751;-66
2024/01/16 01:46:56;;;;;;;4.43;1.70;;;-2.00;99.90;;;;;;4882636;29;20115;-66
2024/01/16 01:49:24;;;;;;;2.17;1.05;;;-2.00;99.90;;;;;;4898353;29;20092;-66
2024/01/16 01:51:50;;;;;;;3.40;1.65;;;-2.00;99.90;;;;;;4896585;29;20048;-67
2024/01/16 01:54:17;;;;;;;5.03;1.48;;;-2.10;99.90;;;;;;4895220;29;20490;-67
2024/01/16 01:56:48;;;;;;;5.00;2.75;;;-2.10;99.90;;;;;;4898379;29;20052;-67
2024/01/16 01:59:18;;;;;;;3.33;1.73;;;-2.20;99.90;;;;;;4915809;29;20040;-67
2024/01/16 02:01:47;;;;;;;1.42;1.33;;;-2.20;99.90;;;;;;4896854;29;20033;-66
2024/01/16 02:04:15;;;;;;;2.15;1.23;;;-2.20;99.90;;;;;;4895244;29;20037;-66
2024/01/16 02:06:44;;;;;;;4.05;1.90;;;-2.30;99.90;;;;;;4889317;29;20025;-66
2024/01/16 02:09:13;;;;;;;3.95;2.17;;;-2.30;99.90;;;;;;4894386;29;20080;-66
2024/01/16 02:11:42;;;;;;;2.85;1.77;;;-2.20;99.90;;;;;;4896593;29;20402;-66
2024/01/16 02:14:09;;;;;;;8.35;2.55;;;-2.20;99.90;;;;;;4894000;29;20036;-66
2024/01/16 02:16:38;;;;;;;2.88;2.25;;;-2.20;99.90;;;;;;4895147;29;20041;-66
2024/01/16 02:19:07;;;;;;;2.60;0.88;;;-2.10;99.90;;;;;;4891009;29;20032;-66
2024/01/16 02:21:52;;;;;;;1.58;1.48;;;-2.00;99.90;;;;;;4891406;29;20028;-66
2024/01/16 02:24:19;;;;;;;2.88;1.60;;;-2.00;99.90;;;;;;4890672;29;20033;-67
2024/01/16 02:26:45;;;;;;;3.33;2.20;;;-2.00;99.90;;;;;;4913955;29;20124;-66
2024/01/16 02:29:11;;;;;;;2.65;1.88;;;-1.90;99.90;;;;;;4912959;29;20111;-66
2024/01/16 02:31:37;;;;;;;5.53;2.10;;;-1.90;99.90;;;;;;4897724;29;20043;-66
2024/01/16 02:34:06;;;;;;;3.03;1.98;;;-1.80;99.90;;;;;;4894579;29;20025;-66
2024/01/16 02:36:33;;;;;;;3.33;2.63;;;-1.80;99.90;;;;;;4898009;29;20100;-66
2024/01/16 02:38:59;;;;;;;5.43;2.38;;;-1.80;99.90;;;;;;4910479;29;20024;-66
2024/01/16 02:41:25;;;;;;;3.63;2.75;;;-1.70;99.90;;;;;;4897449;29;20040;-66
2024/01/16 02:43:51;;;;;;;2.67;1.77;;;-1.70;99.90;;;;;;4895596;29;20020;-66
2024/01/16 02:46:17;;;;;;;2.28;1.35;;;-1.70;99.90;;;;;;4875844;29;20033;-66
2024/01/16 02:48:43;;;;;;;2.53;1.95;;;-1.60;99.90;;;;;;4893196;29;20100;-66
2024/01/16 02:51:09;;;;;;;4.90;2.58;;;-1.60;99.90;;;;;;4893907;29;20079;-66
2024/01/16 02:53:35;;;;;;;3.35;1.85;;;-1.60;99.90;;;;;;4894024;29;20029;-66
2024/01/16 02:56:01;;;;;;;3.22;1.88;;;-1.60;99.90;;;;;;4896509;29;20080;-66
2024/01/16 02:58:28;;;;;;;3.42;1.55;;;-1.50;99.90;;;;;;4897775;29;20029;-66
2024/01/16 03:00:55;;;;;;;7.32;1.80;;;-1.50;99.90;;;;;;4911569;29;20142;-66
2024/01/16 03:03:21;;;;;;;2.50;1.80;;;-1.60;99.90;;;;;;4894514;29;20062;-65
2024/01/16 03:05:50;;;;;;;1.75;1.05;;;-1.70;99.90;;;;;;4892691;29;20028;-66
2024/01/16 03:08:16;;;;;;;1.63;1.27;;;-1.90;99.90;;;;;;4896144;29;20028;-66
2024/01/16 03:10:42;;;;;;;2.55;2.22;;;-2.00;99.90;;;;;;4895976;29;20029;-66
2024/01/16 03:13:08;;;;;;;2.67;1.77;;;-2.10;99.90;;;;;;4895717;29;20065;-67
2024/01/16 03:15:34;;;;;;;1.52;1.35;;;-2.20;99.90;;;;;;4892965;29;20064;-66
2024/01/16 03:18:01;;;;;;;3.60;2.03;;;-2.30;99.90;;;;;;4896991;29;20041;-67
2024/01/16 03:20:28;;;;;;;0.93;0.82;;;-2.30;99.90;;;;;;4878015;29;20087;-66
2024/01/16 03:22:54;;;;;;;2.97;2.03;;;-2.40;99.90;;;;;;4896495;29;20040;-66
2024/01/16 03:25:21;;;;;;;2.88;1.45;;;-2.30;99.90;;;;;;4894358;29;20040;-66
2024/01/16 03:27:47;;;;;;;4.00;2.95;;;-2.30;99.90;;;;;;4898178;29;20036;-66
2024/01/16 03:30:13;;;;;;;3.88;2.25;;;-2.30;99.90;;;;;;4894153;29;20044;-66
2024/01/16 03:32:39;;;;;;;3.03;2.08;;;-2.30;99.90;;;;;;4897284;29;20331;-66
2024/01/16 03:35:08;;;;;;;2.97;2.30;;;-2.30;99.90;;;;;;4894634;29;20032;-66
2024/01/16 03:37:34;;;;;;;1.80;1.60;;;-2.30;99.90;;;;;;4896280;29;20087;-66
2024/01/16 03:40:00;;;;;;;2.60;1.80;;;-2.30;99.90;;;;;;4892828;29;20032;-66
2024/01/16 03:42:26;;;;;;;12.70;2.90;;;-2.30;99.90;;;;;;4896001;29;20414;-66
2024/01/16 03:44:52;;;;;;;1.30;1.13;;;-2.30;99.90;;;;;;4891745;29;20029;-66
2024/01/16 03:47:18;;;;;;;3.58;1.90;;;-2.30;99.90;;;;;;4894472;29;20036;-66
2024/01/16 03:49:43;;;;;;;5.00;3.60;;;-2.30;99.90;;;;;;4889283;29;20107;-66
2024/01/16 03:52:09;;;;;;;16.20;2.78;;;-2.30;99.90;;;;;;4897525;29;20164;-66
2024/01/16 03:54:35;;;;;;;3.28;2.42;;;-2.30;99.90;;;;;;4894266;29;20021;-66
2024/01/16 03:57:01;;;;;;;7.03;3.53;;;-2.30;99.90;;;;;;4904278;29;20112;-66
2024/01/16 03:59:27;;;;;;;1.70;1.58;;;-2.30;99.90;;;;;;4909630;29;20093;-66
2024/01/16 04:01:52;;;;;;;1.55;1.25;;;-2.20;99.90;;;;;;4896632;29;20107;-66
2024/01/16 04:04:18;;;;;;;2.50;2.28;;;-2.20;99.90;;;;;;4889521;29;20029;-65
2024/01/16 04:06:44;;;;;;;3.78;2.10;;;-2.20;99.90;;;;;;4910711;29;20164;-65
2024/01/16 04:09:10;;;;;;;5.85;2.45;;;-2.20;99.90;;;;;;4889457;29;20056;-66
2024/01/16 04:11:36;;;;;;;3.28;2.13;;;-2.10;99.90;;;;;;4874459;29;20028;-65
2024/01/16 04:14:02;;;;;;;4.07;2.10;;;-2.10;99.90;;;;;;4908019;29;20044;-66
2024/01/16 04:16:28;;;;;;;2.38;1.48;;;-2.20;99.90;;;;;;4877808;29;20036;-66
2024/01/16 04:18:54;;;;;;;1.50;1.27;;;-2.20;99.90;;;;;;4890134;29;20044;-66
2024/01/16 04:21:20;;;;;;;4.65;2.33;;;-2.20;99.90;;;;;;4893632;29;20523;-67
2024/01/16 04:23:45;;;;;;;2.55;1.75;;;-2.20;99.90;;;;;;4891630;29;20039;-67
2024/01/16 04:26:11;;;;;;;2.53;1.60;;;-2.20;99.90;;;;;;4891076;24;20189;-65
2024/01/16 04:28:37;;;;;;;4.68;2.83;;;-2.20;99.90;;;;;;4893070;29;20051;-65
2024/01/16 04:31:04;;;;;;;2.53;2.00;;;-2.30;99.90;;;;;;4895694;29;20047;-65
2024/01/16 04:33:30;;;;;;;3.13;2.72;;;-2.30;99.90;;;;;;4891447;29;20029;-65
2024/01/16 04:35:56;;;;;;;1.85;1.75;;;-2.40;99.90;;;;;;4891501;29;20115;-66
2024/01/16 04:38:22;;;;;;;4.60;2.15;;;-2.40;99.90;;;;;;4891130;29;20576;-65
2024/01/16 04:40:49;;;;;;;19.27;3.83;;;-2.40;99.90;;;;;;4892296;29;20083;-66
2024/01/16 04:43:15;;;;;;;8.18;1.83;;;-2.40;99.90;;;;;;4892340;29;20124;-66
2024/01/16 04:45:44;;;;;;;6.45;3.42;;;-2.40;99.90;;;;;;4893211;29;20064;-66
2024/01/16 04:48:09;;;;;;;2.92;1.73;;;-2.40;99.90;;;;;;4891480;29;20119;-66
2024/01/16 04:50:35;;;;;;;2.08;1.45;;;-2.40;99.90;;;;;;4908224;29;20509;-66
2024/01/16 04:53:02;;;;;;;4.50;2.00;;;-2.40;99.90;;;;;;4898421;29;20052;-66
2024/01/16 04:55:31;;;;;;;4.50;1.75;;;-2.40;99.90;;;;;;4890099;29;20398;-66
2024/01/16 04:57:57;;;;;;;5.00;3.08;;;-2.40;99.90;;;;;;4892289;29;20044;-65
2024/01/16 05:00:23;;;;;;;2.40;2.10;;;-2.50;99.90;;;;;;4891195;29;20443;-66
2024/01/16 05:02:51;;;;;;;2.72;2.50;;;-2.50;99.90;;;;;;4892346;29;20061;-66
2024/01/16 05:05:17;;;;;;;3.75;1.58;;;-2.50;99.90;;;;;;4904103;29;20033;-66
2024/01/16 05:07:43;;;;;;;7.00;2.03;;;-2.40;99.90;;;;;;4892258;29;20029;-66
2024/01/16 05:10:15;;;;;;;2.58;2.38;;;-2.40;99.90;;;;;;4891684;29;20654;-66
2024/01/16 05:12:41;;;;;;;2.75;2.15;;;-2.40;99.90;;;;;;4895907;29;20032;-65
2024/01/16 05:15:07;;;;;;;5.50;3.40;;;-2.40;99.90;;;;;;4884035;29;20037;-66
2024/01/16 05:17:33;;;;;;;4.65;2.40;;;-2.40;99.90;;;;;;4906062;29;20482;-66
2024/01/16 05:20:00;;;;;;;8.27;2.35;;;-2.40;99.90;;;;;;4867464;29;20100;-66
2024/01/16 05:22:25;;;;;;;6.97;2.38;;;-2.40;99.90;;;;;;4887113;29;20393;-66
2024/01/16 05:24:51;;;;;;;5.20;2.40;;;-2.40;99.90;;;;;;4895668;29;20025;-66
2024/01/16 05:27:17;;;;;;;1.45;1.35;;;-2.40;99.90;;;;;;4893372;29;20045;-66
2024/01/16 05:29:43;;;;;;;1.23;1.02;;;-2.50;99.90;;;;;;4895049;29;20433;-66
2024/01/16 05:32:09;;;;;;;5.15;1.73;;;-2.00;99.90;;;;;;4895736;29;20021;-67
2024/01/16 05:34:35;;;;;;;2.22;1.60;;;-2.20;99.90;;;;;;4896290;29;20083;-66
2024/01/16 05:37:00;;;;;;;2.28;1.67;;;-2.10;99.90;;;;;;4895992;29;20166;-66
2024/01/16 05:39:26;;;;;;;1.38;1.23;;;-2.40;99.90;;;;;;4908362;29;20677;-66
2024/01/16 05:41:52;;;;;;;3.15;2.30;;;-2.50;99.90;;;;;;4895576;29;20040;-66
2024/01/16 05:44:18;;;;;;;3.28;2.92;;;-2.60;99.90;;;;;;4893803;29;20029;-66
2024/01/16 05:46:44;;;;;;;4.90;2.80;;;-2.60;99.90;;;;;;4894340;29;20025;-66
2024/01/16 05:49:10;;;;;;;3.35;2.58;;;-2.60;99.90;;;;;;4895070;29;20036;-66
2024/01/16 05:51:36;;;;;;;6.13;3.65;;;-2.70;99.90;;;;;;4894118;29;20161;-66
2024/01/16 05:54:03;;;;;;;2.38;1.80;;;-2.60;99.90;;;;;;4895590;29;21724;-66
2024/01/16 05:56:31;;;;;;;2.58;2.38;;;-2.70;99.90;;;;;;4896365;29;20136;-67
2024/01/16 05:58:57;;;;;;;1.30;1.20;;;-2.60;99.90;;;;;;4890384;29;20047;-67
2024/01/16 06:01:23;;;;;;;3.97;1.38;;;-2.70;99.90;;;;;;4894619;29;20668;-67
2024/01/16 06:03:49;;;;;;;1.85;1.60;;;-2.70;99.90;;;;;;4898200;29;20111;-66
2024/01/16 06:06:16;;;;;;;3.25;0.95;;;-2.70;99.90;;;;;;4894484;29;20033;-66
2024/01/16 06:08:42;;;;;;;2.88;1.63;;;-2.70;99.90;;;;;;4896898;29;20032;-66
2024/01/16 06:11:07;;;;;;;3.53;2.20;;;-2.50;99.90;;;;;;4895121;29;20401;-67
2024/01/16 06:13:33;;;;;;;3.30;1.75;;;-2.60;99.90;;;;;;4897007;29;20040;-66
2024/01/16 06:15:59;;;;;;;2.45;1.95;;;-2.50;99.90;;;;;;4893997;29;20040;-66
2024/01/16 06:18:25;;;;;;;3.25;2.47;;;-2.60;99.90;;;;;;4897888;29;20454;-67
2024/01/16 06:20:50;;;;;;;4.80;3.38;;;-2.60;99.90;;;;;;4895460;29;20035;-68
2024/01/16 06:23:16;;;;;;;0.75;0.75;;;-2.60;99.90;;;;;;4893298;29;20131;-67
2024/01/16 06:25:42;;;;;;;2.65;1.80;;;-2.60;99.90;;;;;;4897026;29;20039;-67
2024/01/16 06:28:08;;;;;;;1.60;1.50;;;-2.60;99.90;;;;;;4893375;29;20025;-66
2024/01/16 06:30:34;;;;;;;3.17;1.80;;;-2.60;99.90;;;;;;4898423;29;20045;-67
2024/01/16 06:32:59;;;;;;;2.13;1.83;;;-2.50;99.90;;;;;;4893172;29;20056;-67
2024/01/16 06:35:25;;;;;;;3.88;1.85;;;-2.50;99.90;;;;;;4899277;29;20032;-66
2024/01/16 06:37:51;;;;;;;4.45;2.05;;;-2.50;99.90;;;;;;4911810;29;20032;-66
2024/01/16 06:40:20;;;;;;;3.72;1.52;;;-2.50;99.90;;;;;;4897428;29;20044;-66
2024/01/16 06:42:46;;;;;;;6.00;3.63;;;-2.50;99.90;;;;;;4894236;29;20045;-66
2024/01/16 06:45:13;;;;;;;2.10;1.65;;;-2.50;99.90;;;;;;4897045;29;20029;-67
2024/01/16 06:47:39;;;;;;;3.05;1.58;;;-2.50;99.90;;;;;;4897411;29;20478;-66
2024/01/16 06:50:05;;;;;;;2.33;1.60;;;-2.50;99.90;;;;;;4898031;29;20779;-66
2024/01/16 06:52:31;;;;;;;5.70;2.17;;;-2.50;99.90;;;;;;4896281;29;20390;-66
2024/01/16 06:54:57;;;;;;;5.05;2.92;;;-2.40;99.90;;;;;;4896632;29;20025;-66
2024/01/16 06:57:23;;;;;;;8.50;3.38;;;-2.40;99.90;;;;;;4895465;29;20033;-66
2024/01/16 06:59:49;;;;;;;2.80;2.38;;;-2.40;99.90;;;;;;4894899;29;20032;-66
2024/01/16 07:02:15;;;;;;;3.20;2.50;;;-2.40;99.90;;;;;;4891744;29;20037;-66
2024/01/16 07:04:40;;;;;;;6.55;3.05;;;-2.40;99.90;;;;;;4897480;29;20044;-66
2024/01/16 07:07:06;;;;;;;3.85;1.67;;;-2.30;99.90;;;;;;4897775;29;20041;-65
2024/01/16 07:09:32;;;;;;;9.23;2.92;;;-2.30;99.90;;;;;;4898070;29;20028;-66
2024/01/16 07:11:57;;;;;;;2.90;2.55;;;-2.30;99.90;;;;;;4899757;29;20037;-66
2024/01/16 07:14:23;;;;;;;3.38;2.15;;;-2.30;99.90;;;;;;4897686;29;20108;-65
2024/01/16 07:16:49;;;;;;;3.13;1.58;;;-2.20;99.90;;;;;;4895324;29;20084;-67
2024/01/16 07:19:15;;;;;;;4.35;3.38;;;-2.20;99.90;;;;;;4908117;29;20037;-67
2024/01/16 07:21:42;;;;;;;2.40;1.95;;;-2.20;99.90;;;;;;4897448;29;20393;-67
2024/01/16 07:24:07;;;;;;;2.47;1.63;;;-2.20;99.90;;;;;;4895317;29;20116;-69
2024/01/16 07:26:34;;;;;;;9.27;2.13;;;-2.20;99.90;;;;;;4897279;29;20123;-69
2024/01/16 07:29:00;;;;;;;4.28;2.95;;;-2.20;99.90;;;;;;4896979;29;20029;-69
2024/01/16 07:31:25;;;;;;;4.90;2.50;;;-2.20;99.90;;;;;;4896826;29;20040;-69
2024/01/16 07:33:51;;;;;;;5.15;3.20;;;-2.20;99.90;;;;;;4892873;29;20064;-69
2024/01/16 07:36:17;;;;;;;2.22;1.70;;;-2.20;99.90;;;;;;4896790;29;20119;-69
2024/01/16 07:38:43;;;;;;;12.00;3.22;;;-2.20;99.90;;;;;;4894449;29;20096;-70
2024/01/16 07:41:09;;;;;;;2.65;1.95;;;-2.20;99.90;;;;;;4896426;29;20033;-69
2024/01/16 07:43:35;;;;;;;4.93;2.45;;;-2.30;99.90;;;;;;4892752;29;20037;-69
2024/01/16 07:46:01;;;;;;;1.33;1.23;;;-2.20;99.90;;;;;;4897055;29;20111;-68
2024/01/16 07:48:26;;;;;;;3.50;2.40;;;-2.20;99.90;;;;;;4894391;29;20096;-69
2024/01/16 07:50:52;;;;;;;2.47;2.05;;;-2.10;99.90;;;;;;4895654;29;20036;-68
2024/01/16 07:53:18;;;;;;;3.58;2.33;;;-2.10;99.90;;;;;;4896484;29;20067;-68
2024/01/16 07:55:44;;;;;;;5.13;1.33;;;-2.10;99.90;;;;;;4896176;29;20413;-68
2024/01/16 07:58:13;;;;;;;2.90;1.75;;;-2.10;99.90;;;;;;4897152;29;20040;-69
2024/01/16 08:00:39;;;;;;;3.67;2.80;;;-2.10;99.90;;;;;;4884744;29;20071;-68
2024/01/16 08:03:10;;;;;;;5.38;2.22;;;-2.10;99.90;;;;;;4885396;29;20160;-68
2024/01/16 08:05:36;;;;;;;4.13;2.63;;;-2.00;99.90;;;;;;4894070;29;20065;-69
2024/01/16 08:08:03;;;;;;;2.92;1.83;;;-2.00;99.90;;;;;;4903324;29;20735;-69
2024/01/16 08:10:28;;;;;;;7.05;2.28;;;-2.00;99.90;;;;;;4898807;29;20075;-69
2024/01/16 08:12:54;;;;;;;9.25;2.80;;;-2.00;99.90;;;;;;4897823;29;20052;-69
2024/01/16 08:15:20;;;;;;;7.45;3.47;;;-1.90;99.90;;;;;;4893950;29;20041;-69
2024/01/16 08:17:45;;;;;;;6.25;2.38;;;-1.90;99.90;;;;;;4897283;29;20028;-69
2024/01/16 08:20:12;;;;;;;6.28;2.55;;;-1.80;99.90;;;;;;4896094;29;20095;-69
2024/01/16 08:22:38;;;;;;;3.58;2.10;;;-1.80;99.90;;;;;;4896223;29;20686;-69
2024/01/16 08:25:05;;;;;;;2.58;2.38;;;-1.80;99.90;;;;;;4891535;29;20037;-69
2024/01/16 08:27:31;;;;;;;2.67;2.35;;;-1.80;99.90;;;;;;4896607;29;20100;-69
2024/01/16 08:29:57;;;;;;;4.22;2.05;;;-1.70;99.90;;;;;;4895816;29;20083;-69
2024/01/16 08:32:23;;;;;;;8.43;2.95;;;-1.70;99.90;;;;;;4894591;29;20503;-69
2024/01/16 08:34:49;;;;;;;3.70;2.30;;;-1.70;99.90;;;;;;4895639;29;20533;-69
2024/01/16 08:37:14;;;;;;;4.50;3.25;;;-1.60;99.90;;;;;;4895978;29;20032;-69
2024/01/16 08:39:40;;;;;;;8.57;3.67;;;-1.60;99.90;;;;;;4895787;29;20104;-69
2024/01/16 08:42:06;;;;;;;1.27;1.20;;;-1.50;99.90;;;;;;4896009;29;20370;-69
2024/01/16 08:44:32;;;;;;;15.48;4.32;;;-1.60;99.90;;;;;;4895732;29;20633;-69
2024/01/16 08:46:59;;;;;;;3.78;2.90;;;-1.50;99.90;;;;;;4898604;29;20032;-69
2024/01/16 08:49:25;;;;;;;2.15;1.77;;;-1.50;99.90;;;;;;4898748;29;20040;-69
2024/01/16 08:51:51;;;;;;;5.85;3.58;;;-1.50;99.90;;;;;;4895526;29;20028;-69
2024/01/16 08:54:16;;;;;;;5.57;2.25;;;-1.50;99.90;;;;;;4895683;29;20072;-69
2024/01/16 08:56:42;;;;;;;10.50;4.05;;;-1.40;99.90;;;;;;4895862;29;20037;-69
2024/01/16 08:59:10;;;;;;;3.80;3.50;;;-1.40;99.90;;;;;;4900866;29;20382;-69
2024/01/16 09:01:35;;;;;;;4.80;2.33;;;-1.40;99.90;;;;;;4899654;29;20446;-69
2024/01/16 09:04:01;;;;;;;8.57;4.07;;;-1.30;99.90;;;;;;4898935;29;20033;-69
2024/01/16 09:06:27;;;;;;;3.13;2.17;;;-1.20;99.90;;;;;;4899791;29;20480;-69
2024/01/16 09:08:53;;;;;;;2.08;1.88;;;-1.20;99.90;;;;;;4899640;29;20036;-69
2024/01/16 09:11:18;;;;;;;2.50;2.22;;;-1.20;99.90;;;;;;4899572;29;20087;-69
2024/01/16 09:13:44;;;;;;;12.82;4.47;;;-1.20;99.90;;;;;;4899621;29;20079;-70
2024/01/16 09:16:10;;;;;;;3.67;2.28;;;-1.10;99.90;;;;;;4899355;29;20478;-69
2024/01/16 09:18:35;;;;;;;7.78;3.20;;;-1.10;99.90;;;;;;4899581;29;20036;-69
2024/01/16 09:21:01;;;;;;;7.95;4.03;;;-1.00;99.90;;;;;;4899222;29;20043;-69
2024/01/16 09:23:27;;;;;;;4.32;2.55;;;-1.00;99.90;;;;;;4898185;29;20040;-69
2024/01/16 09:25:53;;;;;;;9.35;3.92;;;-1.00;99.90;;;;;;4894110;29;20104;-69
2024/01/16 09:28:19;;;;;;;5.07;3.83;;;-0.90;99.90;;;;;;4898330;29;20028;-69
2024/01/16 09:30:44;;;;;;;6.57;2.47;;;-0.90;99.90;;;;;;4897777;29;20043;-68
2024/01/16 09:33:11;;;;;;;9.55;3.28;;;-0.90;99.90;;;;;;4897627;29;20429;-68
2024/01/16 09:35:37;;;;;;;3.92;2.83;;;-0.70;99.90;;;;;;4893954;29;20193;-68
2024/01/16 09:38:07;;;;;;;6.20;3.20;;;-0.80;99.90;;;;;;4897807;29;20146;-68
2024/01/16 09:40:35;;;;;;;3.40;1.92;;;-0.80;99.90;;;;;;4895262;29;20516;-68
2024/01/16 09:43:01;;;;;;;9.45;4.22;;;-0.90;99.90;;;;;;4897666;29;20036;-68
2024/01/16 09:45:29;;;;;;;7.90;3.25;;;-0.80;99.90;;;;;;4893707;29;20486;-69
2024/01/16 09:47:59;;;;;;;13.27;3.88;;;-0.80;99.90;;;;;;4897888;29;20182;-68
2024/01/16 09:50:25;;;;;;;5.38;2.45;;;-0.80;99.90;;;;;;4893948;29;20036;-68
2024/01/16 09:52:51;;;;;;;4.38;2.65;;;-0.80;99.90;;;;;;4897418;29;20388;-67
2024/01/16 09:55:17;;;;;;;7.03;2.22;;;-0.70;99.90;;;;;;4893171;29;20036;-67
2024/01/16 09:57:45;;;;;;;2.88;1.90;;;-0.70;99.90;;;;;;4897468;29;20033;-67
2024/01/16 10:00:12;;;;;;;5.53;3.47;;;-0.60;99.90;;;;;;4894569;29;20044;-66
2024/01/16 10:02:42;;;;;;;5.13;2.50;;;-0.60;99.90;;;;;;4898433;29;20036;-66
2024/01/16 10:05:12;;;;;;;7.25;2.70;;;-0.60;99.90;;;;;;4898339;29;20433;-66
2024/01/16 10:07:41;;;;;;;8.45;3.63;;;-0.50;99.90;;;;;;4897981;29;20032;-66
2024/01/16 10:10:10;;;;;;;4.80;2.58;;;-0.40;99.90;;;;;;4892462;29;20037;-66
2024/01/16 10:12:39;;;;;;;6.90;2.97;;;-0.40;99.90;;;;;;4902296;29;20366;-66
2024/01/16 10:15:09;;;;;;;8.20;4.55;;;-0.40;99.90;;;;;;4905642;29;20041;-66
2024/01/16 10:17:42;;;;;;;5.07;2.75;;;-0.40;99.90;;;;;;4892350;29;20046;-66
2024/01/16 10:20:13;;;;;;;7.75;3.00;;;-0.30;99.90;;;;;;4898879;29;20037;-66
2024/01/16 10:22:40;;;;;;;5.90;3.28;;;-0.30;99.90;;;;;;4884165;29;20036;-67
2024/01/16 10:25:16;;;;;;;8.00;3.22;;;-0.30;99.90;;;;;;4885635;29;20508;-67
2024/01/16 10:27:42;;;;;;;4.82;3.13;;;-0.20;99.90;;;;;;4896862;29;20040;-67
2024/01/16 10:30:10;;;;;;;17.63;3.20;;;-0.20;99.90;;;;;;4897831;29;20033;-67
2024/01/16 10:32:43;;;;;;;6.22;2.88;;;-0.20;99.90;;;;;;4898130;29;20397;-67
2024/01/16 10:35:13;;;;;;;8.38;5.18;;;-0.10;99.90;;;;;;4877149;29;20032;-67
2024/01/16 10:37:53;;;;;;;6.85;2.30;;;-0.10;99.90;;;;;;4896996;29;20029;-67
2024/01/16 10:40:28;;;;;;;8.35;4.28;;;0.00;99.90;;;;;;4880592;29;20035;-67
2024/01/16 10:43:05;;;;;;;7.65;3.65;;;-0.10;99.90;;;;;;4912455;29;20470;-66
2024/01/16 10:45:34;;;;;;;6.60;2.92;;;0.00;99.90;;;;;;4896156;29;20516;-66
2024/01/16 10:48:07;;;;;;;11.63;2.85;;;0.00;99.90;;;;;;4881405;29;20091;-66
2024/01/16 10:50:35;;;;;;;2.90;2.60;;;0.10;99.90;;;;;;4892117;29;20524;-66
2024/01/16 10:53:05;;;;;;;11.43;3.80;;;0.10;99.90;;;;;;4896630;29;20044;-66
2024/01/16 10:55:37;;;;;;;5.30;2.97;;;0.30;99.90;;;;;;4891956;29;20045;-66
2024/01/16 10:58:05;;;;;;;5.22;2.92;;;0.40;99.90;;;;;;4896445;29;20040;-66
2024/01/16 11:00:33;;;;;;;5.47;3.33;;;0.60;99.90;;;;;;4891647;29;20036;-67
2024/01/16 11:03:09;;;;;;;17.73;4.15;;;0.80;99.90;;;;;;4896090;29;20050;-67
2024/01/16 11:05:37;;;;;;;7.90;4.20;;;0.80;99.90;;;;;;4891850;29;20032;-67
2024/01/16 11:08:05;;;;;;;8.30;3.85;;;0.90;99.90;;;;;;4893310;29;20088;-67
2024/01/16 11:10:34;;;;;;;6.07;4.00;;;0.60;99.90;;;;;;4909102;29;20044;-67
2024/01/16 11:13:02;;;;;;;7.03;3.80;;;0.70;99.90;;;;;;4897317;29;20038;-67
2024/01/16 11:15:29;;;;;;;6.47;3.65;;;0.90;99.90;;;;;;4896886;29;20032;-67
2024/01/16 11:17:59;;;;;;;7.82;3.67;;;1.00;99.90;;;;;;4899966;29;20040;-67
2024/01/16 11:20:26;;;;;;;8.13;3.03;;;1.10;99.90;;;;;;4891212;29;20044;-67
2024/01/16 11:22:59;;;;;;;3.67;2.08;;;1.20;99.90;;;;;;4903521;29;20072;-67
2024/01/16 11:25:34;;;;;;;7.03;3.08;;;1.30;99.90;;;;;;4895912;29;20040;-67
2024/01/16 11:28:11;;;;;;;11.82;3.80;;;1.40;99.90;;;;;;4899254;29;20025;-66
2024/01/16 11:30:37;;;;;;;7.50;4.40;;;1.10;99.90;;;;;;4891709;29;20052;-67
2024/01/16 11:33:04;;;;;;;6.68;3.72;;;1.10;99.90;;;;;;4897413;29;20580;-66
2024/01/16 11:35:38;;;;;;;3.67;2.08;;;1.10;99.90;;;;;;4896458;29;20132;-66
2024/01/16 11:38:14;;;;;;;4.28;2.55;;;1.10;99.90;;;;;;4895595;29;20036;-66
2024/01/16 11:40:39;;;;;;;5.75;2.83;;;1.20;99.90;;;;;;4891473;29;20037;-67
2024/01/16 11:43:33;;;;;;;5.38;2.33;;;1.00;99.90;;;;;;4896741;29;20063;-67
2024/01/16 11:46:05;;;;;;;4.13;2.20;;;1.20;99.90;;;;;;4896271;29;20063;-67
2024/01/16 11:48:31;;;;;;;3.83;2.63;;;1.20;99.90;;;;;;4895704;29;20073;-67
2024/01/16 11:50:57;;;;;;;7.75;3.80;;;1.40;99.90;;;;;;4896513;29;20067;-67
2024/01/16 11:53:36;;;;;;;6.03;2.78;;;1.50;99.90;;;;;;4896709;29;20051;-67
2024/01/16 11:56:20;;;;;;;6.82;2.25;;;1.60;99.90;;;;;;4896651;29;20025;-67
2024/01/16 11:58:57;;;;;;;5.88;3.47;;;1.60;99.90;;;;;;4902238;29;20109;-67
2024/01/16 12:01:23;;;;;;;7.47;4.20;;;2.30;99.90;;;;;;4892216;29;20028;-67
2024/01/16 12:04:05;;;;;;;3.00;2.30;;;2.70;99.90;;;;;;4894474;29;20040;-67
2024/01/16 12:06:35;;;;;;;4.50;2.50;;;3.00;99.90;;;;;;4894242;29;20497;-67
2024/01/16 12:09:15;;;;;;;8.43;2.67;;;3.00;99.90;;;;;;4901149;29;20427;-67
2024/01/16 12:11:47;;;;;;;5.30;2.45;;;3.80;99.90;;;;;;4895263;29;20044;-67
2024/01/16 12:14:13;;;;;;;5.47;3.13;;;3.10;99.90;;;;;;4895826;29;20036;-67
2024/01/16 12:16:39;;;;;;;3.35;2.15;;;3.20;99.90;;;;;;4896361;29;20523;-68
2024/01/16 12:19:09;;;;;;;8.82;3.15;;;3.20;99.90;;;;;;4908959;29;20535;-66
2024/01/16 12:21:43;;;;;;;4.35;2.50;;;2.90;99.90;;;;;;4894407;29;20063;-66
2024/01/16 12:24:11;;;;;;;4.78;2.63;;;2.90;99.90;;;;;;4879326;29;20033;-67
2024/01/16 12:26:39;;;;;;;4.45;2.50;;;3.40;99.90;;;;;;4896222;29;20033;-67
2024/01/16 12:29:04;;;;;;;6.82;4.00;;;3.80;99.90;;;;;;4894562;29;20035;-67
2024/01/16 12:31:30;;;;;;;4.47;2.63;;;4.30;99.90;;;;;;4896579;29;20124;-68
2024/01/16 12:34:08;;;;;;;8.48;3.17;;;5.10;99.90;;;;;;4893975;29;20033;-68
2024/01/16 12:36:35;;;;;;;3.67;2.25;;;6.70;95.20;;;;;;4896170;29;20092;-68
2024/01/16 12:39:01;;;;;;;9.40;2.20;;;6.30;92.90;;;;;;4901310;29;20055;-68
2024/01/16 12:41:51;;;;;;;7.75;2.60;;;5.10;97.30;;;;;;4896086;29;20040;-68
2024/01/16 12:44:17;;;;;;;5.13;2.65;;;4.70;99.30;;;;;;4896109;29;20064;-68
2024/01/16 12:47:03;;;;;;;5.57;2.08;;;4.70;98.90;;;;;;4894857;29;20070;-68
2024/01/16 12:49:30;;;;;;;4.75;2.03;;;4.70;99.70;;;;;;4895347;29;20045;-68